sensor_id;sensor_type;location;lat;lon;timestamp;P1;durP1;ratioP1;P2;durP2;ratioP2
572;SDS011;271;51.114;13.780;2023-04-01T00:01:29;16.20;;;1.20;;
572;SDS011;271;51.114;13.780;2023-04-01T00:04:17;15.90;;;1.20;;
572;SDS011;271;51.114;13.780;2023-04-01T00:07:06;18.43;;;1.40;;
572;SDS011;271;51.114;13.780;2023-04-01T00:09:53;16.10;;;1.20;;
572;SDS011;271;51.114;13.780;2023-04-01T00:12:41;16.17;;;1.20;;
572;SDS011;271;51.114;13.780;2023-04-01T00:15:31;16.17;;;1.00;;
572;SDS011;271;51.114;13.780;2023-04-01T00:18:19;16.38;;;1.08;;
572;SDS011;271;51.114;13.780;2023-04-01T00:21:07;18.60;;;1.60;;
572;SDS011;271;51.114;13.780;2023-04-01T00:23:55;17.20;;;1.30;;
572;SDS011;271;51.114;13.780;2023-04-01T00:26:43;17.03;;;1.30;;
572;SDS011;271;51.114;13.780;2023-04-01T00:29:33;17.52;;;1.48;;
572;SDS011;271;51.114;13.780;2023-04-01T00:32:22;16.88;;;1.50;;
572;SDS011;271;51.114;13.780;2023-04-01T00:35:11;18.57;;;1.37;;
572;SDS011;271;51.114;13.780;2023-04-01T00:37:59;17.07;;;1.30;;
572;SDS011;271;51.114;13.780;2023-04-01T00:40:47;16.50;;;1.20;;
572;SDS011;271;51.114;13.780;2023-04-01T00:43:35;16.90;;;1.20;;
572;SDS011;271;51.114;13.780;2023-04-01T00:46:23;17.00;;;0.97;;
572;SDS011;271;51.114;13.780;2023-04-01T00:49:12;17.13;;;1.53;;
572;SDS011;271;51.114;13.780;2023-04-01T00:52:01;17.20;;;1.55;;
572;SDS011;271;51.114;13.780;2023-04-01T00:54:52;17.07;;;1.20;;
572;SDS011;271;51.114;13.780;2023-04-01T00:57:43;16.67;;;1.20;;
572;SDS011;271;51.114;13.780;2023-04-01T01:00:33;17.30;;;1.23;;
572;SDS011;271;51.114;13.780;2023-04-01T01:03:22;20.02;;;1.40;;
572;SDS011;271;51.114;13.780;2023-04-01T01:06:13;17.27;;;1.80;;
572;SDS011;271;51.114;13.780;2023-04-01T01:09:30;18.60;;;1.43;;
572;SDS011;271;51.114;13.780;2023-04-01T01:12:27;18.60;;;1.10;;
572;SDS011;271;51.114;13.780;2023-04-01T01:15:20;16.92;;;2.28;;
572;SDS011;271;51.114;13.780;2023-04-01T01:18:14;17.15;;;1.55;;
572;SDS011;271;51.114;13.780;2023-04-01T01:21:18;17.30;;;1.40;;
572;SDS011;271;51.114;13.780;2023-04-01T01:24:22;17.80;;;1.80;;
572;SDS011;271;51.114;13.780;2023-04-01T01:27:26;17.42;;;1.27;;
572;SDS011;271;51.114;13.780;2023-04-01T01:30:26;18.80;;;1.23;;
572;SDS011;271;51.114;13.780;2023-04-01T01:33:34;17.10;;;1.45;;
572;SDS011;271;51.114;13.780;2023-04-01T01:36:32;17.08;;;1.50;;
572;SDS011;271;51.114;13.780;2023-04-01T01:39:21;17.27;;;1.63;;
572;SDS011;271;51.114;13.780;2023-04-01T01:42:14;16.90;;;1.40;;
572;SDS011;271;51.114;13.780;2023-04-01T01:45:05;16.65;;;1.20;;
572;SDS011;271;51.114;13.780;2023-04-01T01:47:55;16.40;;;1.13;;
572;SDS011;271;51.114;13.780;2023-04-01T01:50:44;17.80;;;1.50;;
572;SDS011;271;51.114;13.780;2023-04-01T01:53:36;16.60;;;1.15;;
572;SDS011;271;51.114;13.780;2023-04-01T01:56:25;16.50;;;1.30;;
572;SDS011;271;51.114;13.780;2023-04-01T01:59:14;17.77;;;1.60;;
572;SDS011;271;51.114;13.780;2023-04-01T02:02:06;17.17;;;1.30;;
572;SDS011;271;51.114;13.780;2023-04-01T02:04:56;16.17;;;1.00;;
572;SDS011;271;51.114;13.780;2023-04-01T02:07:46;16.10;;;1.00;;
572;SDS011;271;51.114;13.780;2023-04-01T02:10:41;17.42;;;1.20;;
572;SDS011;271;51.114;13.780;2023-04-01T02:13:34;17.87;;;1.47;;
572;SDS011;271;51.114;13.780;2023-04-01T02:16:26;17.83;;;1.30;;
572;SDS011;271;51.114;13.780;2023-04-01T02:19:18;16.97;;;1.20;;
572;SDS011;271;51.114;13.780;2023-04-01T02:22:08;19.50;;;1.70;;
572;SDS011;271;51.114;13.780;2023-04-01T02:25:01;18.65;;;1.25;;
572;SDS011;271;51.114;13.780;2023-04-01T02:27:53;17.93;;;1.53;;
572;SDS011;271;51.114;13.780;2023-04-01T02:30:44;18.40;;;1.30;;
572;SDS011;271;51.114;13.780;2023-04-01T02:33:32;19.83;;;1.30;;
572;SDS011;271;51.114;13.780;2023-04-01T02:36:19;17.30;;;1.60;;
572;SDS011;271;51.114;13.780;2023-04-01T02:39:08;16.10;;;1.10;;
572;SDS011;271;51.114;13.780;2023-04-01T02:41:56;17.85;;;1.20;;
572;SDS011;271;51.114;13.780;2023-04-01T02:44:45;16.30;;;1.10;;
572;SDS011;271;51.114;13.780;2023-04-01T02:47:33;17.55;;;1.20;;
572;SDS011;271;51.114;13.780;2023-04-01T02:50:20;17.17;;;1.35;;
572;SDS011;271;51.114;13.780;2023-04-01T02:53:08;16.05;;;1.00;;
572;SDS011;271;51.114;13.780;2023-04-01T02:55:57;18.63;;;1.60;;
572;SDS011;271;51.114;13.780;2023-04-01T02:58:44;20.37;;;1.60;;
572;SDS011;271;51.114;13.780;2023-04-01T03:01:33;19.63;;;1.98;;
572;SDS011;271;51.114;13.780;2023-04-01T03:04:21;18.40;;;1.50;;
572;SDS011;271;51.114;13.780;2023-04-01T03:07:09;17.20;;;1.50;;
572;SDS011;271;51.114;13.780;2023-04-01T03:09:57;16.35;;;1.10;;
572;SDS011;271;51.114;13.780;2023-04-01T03:12:45;16.77;;;1.17;;
572;SDS011;271;51.114;13.780;2023-04-01T03:15:33;17.70;;;1.10;;
572;SDS011;271;51.114;13.780;2023-04-01T03:18:22;19.00;;;1.50;;
572;SDS011;271;51.114;13.780;2023-04-01T03:21:16;17.13;;;1.30;;
572;SDS011;271;51.114;13.780;2023-04-01T03:24:06;17.60;;;1.37;;
572;SDS011;271;51.114;13.780;2023-04-01T03:26:54;16.60;;;1.13;;
572;SDS011;271;51.114;13.780;2023-04-01T03:29:42;16.60;;;1.30;;
572;SDS011;271;51.114;13.780;2023-04-01T03:32:30;16.23;;;1.30;;
572;SDS011;271;51.114;13.780;2023-04-01T03:35:19;18.77;;;1.70;;
572;SDS011;271;51.114;13.780;2023-04-01T03:38:06;16.77;;;1.17;;
572;SDS011;271;51.114;13.780;2023-04-01T03:40:54;19.42;;;1.85;;
572;SDS011;271;51.114;13.780;2023-04-01T03:43:42;16.33;;;1.30;;
572;SDS011;271;51.114;13.780;2023-04-01T03:46:30;17.10;;;1.33;;
572;SDS011;271;51.114;13.780;2023-04-01T03:49:18;16.70;;;1.17;;
572;SDS011;271;51.114;13.780;2023-04-01T03:52:09;20.45;;;1.40;;
572;SDS011;271;51.114;13.780;2023-04-01T03:54:57;15.73;;;1.10;;
572;SDS011;271;51.114;13.780;2023-04-01T03:57:45;15.63;;;1.33;;
572;SDS011;271;51.114;13.780;2023-04-01T04:00:33;18.45;;;1.50;;
572;SDS011;271;51.114;13.780;2023-04-01T04:03:21;19.23;;;1.43;;
572;SDS011;271;51.114;13.780;2023-04-01T04:06:11;19.07;;;1.60;;
572;SDS011;271;51.114;13.780;2023-04-01T04:09:00;18.47;;;1.23;;
572;SDS011;271;51.114;13.780;2023-04-01T04:11:48;18.20;;;1.50;;
572;SDS011;271;51.114;13.780;2023-04-01T04:14:37;16.60;;;1.23;;
572;SDS011;271;51.114;13.780;2023-04-01T04:17:24;17.13;;;1.40;;
572;SDS011;271;51.114;13.780;2023-04-01T04:20:12;16.05;;;1.10;;
572;SDS011;271;51.114;13.780;2023-04-01T04:23:00;16.87;;;1.80;;
572;SDS011;271;51.114;13.780;2023-04-01T04:25:56;16.40;;;1.57;;
572;SDS011;271;51.114;13.780;2023-04-01T04:28:45;18.43;;;2.97;;
572;SDS011;271;51.114;13.780;2023-04-01T04:31:33;20.57;;;2.70;;
572;SDS011;271;51.114;13.780;2023-04-01T04:34:21;17.30;;;2.00;;
572;SDS011;271;51.114;13.780;2023-04-01T04:37:09;18.00;;;2.00;;
572;SDS011;271;51.114;13.780;2023-04-01T04:39:57;18.50;;;1.87;;
572;SDS011;271;51.114;13.780;2023-04-01T04:42:46;19.00;;;1.50;;
572;SDS011;271;51.114;13.780;2023-04-01T04:45:33;17.23;;;1.30;;
572;SDS011;271;51.114;13.780;2023-04-01T04:48:21;17.60;;;1.23;;
572;SDS011;271;51.114;13.780;2023-04-01T04:51:12;16.47;;;1.27;;
572;SDS011;271;51.114;13.780;2023-04-01T04:54:01;15.67;;;1.10;;
572;SDS011;271;51.114;13.780;2023-04-01T04:56:50;17.77;;;1.50;;
572;SDS011;271;51.114;13.780;2023-04-01T04:59:40;17.90;;;1.50;;
572;SDS011;271;51.114;13.780;2023-04-01T05:02:28;15.73;;;1.20;;
572;SDS011;271;51.114;13.780;2023-04-01T05:05:16;17.43;;;1.40;;
572;SDS011;271;51.114;13.780;2023-04-01T05:08:04;17.50;;;1.20;;
572;SDS011;271;51.114;13.780;2023-04-01T05:10:52;18.20;;;1.55;;
572;SDS011;271;51.114;13.780;2023-04-01T05:13:39;18.83;;;1.40;;
572;SDS011;271;51.114;13.780;2023-04-01T05:16:29;16.67;;;1.47;;
572;SDS011;271;51.114;13.780;2023-04-01T05:19:17;16.83;;;1.20;;
572;SDS011;271;51.114;13.780;2023-04-01T05:22:05;18.57;;;1.47;;
572;SDS011;271;51.114;13.780;2023-04-01T05:24:53;18.20;;;1.13;;
572;SDS011;271;51.114;13.780;2023-04-01T05:27:41;16.33;;;1.17;;
572;SDS011;271;51.114;13.780;2023-04-01T05:30:28;16.50;;;1.50;;
572;SDS011;271;51.114;13.780;2023-04-01T05:33:17;16.23;;;1.30;;
572;SDS011;271;51.114;13.780;2023-04-01T05:36:06;17.80;;;1.60;;
572;SDS011;271;51.114;13.780;2023-04-01T05:38:55;16.40;;;1.00;;
572;SDS011;271;51.114;13.780;2023-04-01T05:41:43;15.83;;;1.40;;
572;SDS011;271;51.114;13.780;2023-04-01T05:44:31;15.63;;;1.23;;
572;SDS011;271;51.114;13.780;2023-04-01T05:47:18;17.07;;;1.57;;
572;SDS011;271;51.114;13.780;2023-04-01T05:50:08;15.07;;;1.20;;
572;SDS011;271;51.114;13.780;2023-04-01T05:52:57;17.23;;;1.53;;
572;SDS011;271;51.114;13.780;2023-04-01T05:55:47;18.30;;;1.17;;
572;SDS011;271;51.114;13.780;2023-04-01T05:58:35;15.97;;;1.47;;
572;SDS011;271;51.114;13.780;2023-04-01T06:01:23;16.00;;;1.30;;
572;SDS011;271;51.114;13.780;2023-04-01T06:04:13;16.93;;;1.87;;
572;SDS011;271;51.114;13.780;2023-04-01T06:07:08;15.07;;;1.00;;
572;SDS011;271;51.114;13.780;2023-04-01T06:09:58;16.40;;;1.47;;
572;SDS011;271;51.114;13.780;2023-04-01T06:12:51;16.50;;;1.10;;
572;SDS011;271;51.114;13.780;2023-04-01T06:15:51;15.80;;;1.20;;
572;SDS011;271;51.114;13.780;2023-04-01T06:19:04;17.23;;;1.20;;
572;SDS011;271;51.114;13.780;2023-04-01T06:25:32;17.52;;;1.70;;
572;SDS011;271;51.114;13.780;2023-04-01T06:28:43;15.87;;;1.50;;
572;SDS011;271;51.114;13.780;2023-04-01T06:31:56;16.13;;;1.50;;
572;SDS011;271;51.114;13.780;2023-04-01T06:35:22;17.03;;;1.20;;
572;SDS011;271;51.114;13.780;2023-04-01T06:38:27;16.30;;;1.63;;
572;SDS011;271;51.114;13.780;2023-04-01T06:41:32;18.57;;;1.60;;
572;SDS011;271;51.114;13.780;2023-04-01T06:44:42;17.17;;;2.57;;
572;SDS011;271;51.114;13.780;2023-04-01T06:47:45;17.10;;;1.60;;
572;SDS011;271;51.114;13.780;2023-04-01T06:50:44;15.70;;;1.37;;
572;SDS011;271;51.114;13.780;2023-04-01T06:53:42;17.40;;;1.53;;
572;SDS011;271;51.114;13.780;2023-04-01T06:56:41;16.40;;;1.80;;
572;SDS011;271;51.114;13.780;2023-04-01T06:59:32;17.50;;;1.77;;
572;SDS011;271;51.114;13.780;2023-04-01T07:02:24;17.27;;;1.60;;
572;SDS011;271;51.114;13.780;2023-04-01T07:05:19;15.90;;;1.10;;
572;SDS011;271;51.114;13.780;2023-04-01T07:08:08;17.60;;;1.30;;
572;SDS011;271;51.114;13.780;2023-04-01T07:11:03;16.30;;;1.37;;
572;SDS011;271;51.114;13.780;2023-04-01T07:13:53;16.57;;;1.40;;
572;SDS011;271;51.114;13.780;2023-04-01T07:16:48;16.77;;;1.63;;
572;SDS011;271;51.114;13.780;2023-04-01T07:19:50;16.70;;;1.30;;
572;SDS011;271;51.114;13.780;2023-04-01T07:22:43;17.10;;;1.60;;
572;SDS011;271;51.114;13.780;2023-04-01T07:25:35;16.43;;;1.37;;
572;SDS011;271;51.114;13.780;2023-04-01T07:28:27;15.60;;;1.60;;
572;SDS011;271;51.114;13.780;2023-04-01T07:31:22;18.03;;;1.13;;
572;SDS011;271;51.114;13.780;2023-04-01T07:34:25;16.87;;;1.23;;
572;SDS011;271;51.114;13.780;2023-04-01T07:37:16;16.37;;;1.40;;
572;SDS011;271;51.114;13.780;2023-04-01T07:40:15;17.27;;;1.27;;
572;SDS011;271;51.114;13.780;2023-04-01T07:43:23;15.87;;;1.37;;
572;SDS011;271;51.114;13.780;2023-04-01T07:46:38;15.83;;;1.10;;
572;SDS011;271;51.114;13.780;2023-04-01T07:49:40;17.50;;;1.10;;
572;SDS011;271;51.114;13.780;2023-04-01T07:52:35;15.93;;;1.03;;
572;SDS011;271;51.114;13.780;2023-04-01T07:55:32;15.93;;;1.20;;
572;SDS011;271;51.114;13.780;2023-04-01T07:58:40;16.93;;;1.30;;
572;SDS011;271;51.114;13.780;2023-04-01T08:01:41;16.93;;;1.30;;
572;SDS011;271;51.114;13.780;2023-04-01T08:04:37;15.60;;;1.00;;
572;SDS011;271;51.114;13.780;2023-04-01T08:07:41;15.60;;;1.10;;
572;SDS011;271;51.114;13.780;2023-04-01T08:10:36;15.47;;;1.10;;
572;SDS011;271;51.114;13.780;2023-04-01T08:13:32;15.37;;;0.90;;
572;SDS011;271;51.114;13.780;2023-04-01T08:16:31;15.67;;;0.90;;
572;SDS011;271;51.114;13.780;2023-04-01T08:19:29;15.50;;;1.23;;
572;SDS011;271;51.114;13.780;2023-04-01T08:22:27;20.07;;;2.30;;
572;SDS011;271;51.114;13.780;2023-04-01T08:25:20;16.87;;;1.00;;
572;SDS011;271;51.114;13.780;2023-04-01T08:28:13;16.73;;;1.30;;
572;SDS011;271;51.114;13.780;2023-04-01T08:31:13;17.50;;;0.90;;
572;SDS011;271;51.114;13.780;2023-04-01T08:34:05;15.63;;;1.10;;
572;SDS011;271;51.114;13.780;2023-04-01T08:37:04;18.50;;;1.13;;
572;SDS011;271;51.114;13.780;2023-04-01T08:39:55;15.47;;;0.90;;
572;SDS011;271;51.114;13.780;2023-04-01T08:42:50;17.43;;;1.40;;
572;SDS011;271;51.114;13.780;2023-04-01T08:46:05;15.67;;;1.10;;
572;SDS011;271;51.114;13.780;2023-04-01T08:49:17;16.20;;;1.33;;
572;SDS011;271;51.114;13.780;2023-04-01T08:55:36;15.57;;;0.90;;
572;SDS011;271;51.114;13.780;2023-04-01T09:02:18;17.10;;;1.20;;
572;SDS011;271;51.114;13.780;2023-04-01T09:05:35;15.93;;;1.10;;
572;SDS011;271;51.114;13.780;2023-04-01T09:08:33;15.30;;;0.97;;
572;SDS011;271;51.114;13.780;2023-04-01T09:11:32;15.90;;;1.10;;
572;SDS011;271;51.114;13.780;2023-04-01T09:21:29;15.40;;;1.30;;
572;SDS011;271;51.114;13.780;2023-04-01T09:24:32;16.00;;;0.90;;
572;SDS011;271;51.114;13.780;2023-04-01T09:27:31;15.40;;;1.30;;
572;SDS011;271;51.114;13.780;2023-04-01T09:30:31;16.63;;;1.10;;
572;SDS011;271;51.114;13.780;2023-04-01T09:36:59;15.73;;;1.13;;
572;SDS011;271;51.114;13.780;2023-04-01T09:40:15;16.00;;;1.00;;
572;SDS011;271;51.114;13.780;2023-04-01T09:43:16;18.10;;;1.20;;
572;SDS011;271;51.114;13.780;2023-04-01T09:46:23;16.63;;;1.20;;
572;SDS011;271;51.114;13.780;2023-04-01T09:49:23;16.00;;;0.90;;
572;SDS011;271;51.114;13.780;2023-04-01T09:52:31;15.80;;;1.00;;
572;SDS011;271;51.114;13.780;2023-04-01T10:05:42;15.83;;;1.40;;
572;SDS011;271;51.114;13.780;2023-04-01T10:12:24;16.83;;;1.30;;
572;SDS011;271;51.114;13.780;2023-04-01T10:19:03;16.70;;;1.00;;
572;SDS011;271;51.114;13.780;2023-04-01T10:25:44;15.80;;;1.30;;
572;SDS011;271;51.114;13.780;2023-04-01T10:29:06;16.03;;;1.03;;
572;SDS011;271;51.114;13.780;2023-04-01T10:35:49;15.87;;;1.23;;
572;SDS011;271;51.114;13.780;2023-04-01T10:46:06;16.23;;;1.53;;
572;SDS011;271;51.114;13.780;2023-04-01T10:59:36;15.07;;;1.10;;
572;SDS011;271;51.114;13.780;2023-04-01T11:09:55;16.33;;;1.20;;
572;SDS011;271;51.114;13.780;2023-04-01T11:13:25;15.80;;;1.30;;
572;SDS011;271;51.114;13.780;2023-04-01T11:16:42;16.30;;;1.40;;
572;SDS011;271;51.114;13.780;2023-04-01T11:20:01;16.07;;;1.10;;
572;SDS011;271;51.114;13.780;2023-04-01T11:26:36;15.33;;;0.90;;
572;SDS011;271;51.114;13.780;2023-04-01T11:29:41;17.80;;;1.13;;
572;SDS011;271;51.114;13.780;2023-04-01T11:32:46;16.30;;;1.20;;
572;SDS011;271;51.114;13.780;2023-04-01T11:35:45;16.60;;;1.20;;
572;SDS011;271;51.114;13.780;2023-04-01T11:38:47;15.43;;;1.10;;
572;SDS011;271;51.114;13.780;2023-04-01T11:41:51;16.23;;;1.27;;
572;SDS011;271;51.114;13.780;2023-04-01T11:44:53;15.87;;;1.30;;
572;SDS011;271;51.114;13.780;2023-04-01T11:47:51;17.00;;;1.40;;
572;SDS011;271;51.114;13.780;2023-04-01T11:50:55;15.53;;;1.13;;
572;SDS011;271;51.114;13.780;2023-04-01T11:53:58;18.50;;;1.77;;
572;SDS011;271;51.114;13.780;2023-04-01T11:56:58;17.37;;;1.30;;
572;SDS011;271;51.114;13.780;2023-04-01T11:59:57;15.73;;;1.30;;
572;SDS011;271;51.114;13.780;2023-04-01T12:03:07;16.00;;;1.17;;
572;SDS011;271;51.114;13.780;2023-04-01T12:06:08;16.57;;;1.30;;
572;SDS011;271;51.114;13.780;2023-04-01T12:09:03;15.67;;;1.10;;
572;SDS011;271;51.114;13.780;2023-04-01T12:12:15;15.30;;;1.00;;
572;SDS011;271;51.114;13.780;2023-04-01T12:15:14;15.50;;;1.20;;
572;SDS011;271;51.114;13.780;2023-04-01T12:18:11;16.00;;;0.90;;
572;SDS011;271;51.114;13.780;2023-04-01T12:21:10;15.07;;;0.90;;
572;SDS011;271;51.114;13.780;2023-04-01T12:27:31;15.03;;;1.00;;
572;SDS011;271;51.114;13.780;2023-04-01T12:30:36;15.27;;;0.90;;
572;SDS011;271;51.114;13.780;2023-04-01T12:33:41;14.97;;;0.70;;
572;SDS011;271;51.114;13.780;2023-04-01T12:36:52;15.10;;;0.80;;
572;SDS011;271;51.114;13.780;2023-04-01T12:39:54;15.80;;;0.80;;
572;SDS011;271;51.114;13.780;2023-04-01T12:42:55;15.17;;;0.80;;
572;SDS011;271;51.114;13.780;2023-04-01T12:45:53;15.10;;;0.90;;
572;SDS011;271;51.114;13.780;2023-04-01T12:48:56;15.90;;;0.90;;
572;SDS011;271;51.114;13.780;2023-04-01T12:52:04;15.67;;;1.00;;
572;SDS011;271;51.114;13.780;2023-04-01T12:55:01;15.47;;;0.87;;
572;SDS011;271;51.114;13.780;2023-04-01T13:01:57;14.90;;;0.80;;
572;SDS011;271;51.114;13.780;2023-04-01T13:08:35;14.73;;;0.90;;
572;SDS011;271;51.114;13.780;2023-04-01T13:11:34;14.83;;;0.90;;
572;SDS011;271;51.114;13.780;2023-04-01T13:14:41;15.43;;;1.10;;
572;SDS011;271;51.114;13.780;2023-04-01T13:17:41;14.80;;;0.90;;
572;SDS011;271;51.114;13.780;2023-04-01T13:20:43;15.00;;;0.90;;
572;SDS011;271;51.114;13.780;2023-04-01T13:23:41;14.57;;;0.90;;
572;SDS011;271;51.114;13.780;2023-04-01T13:26:38;14.40;;;0.80;;
572;SDS011;271;51.114;13.780;2023-04-01T13:29:57;14.70;;;0.83;;
572;SDS011;271;51.114;13.780;2023-04-01T13:32:54;14.70;;;0.93;;
572;SDS011;271;51.114;13.780;2023-04-01T13:41:58;15.43;;;1.00;;
572;SDS011;271;51.114;13.780;2023-04-01T13:45:03;15.00;;;1.20;;
572;SDS011;271;51.114;13.780;2023-04-01T13:58:33;14.87;;;0.87;;
572;SDS011;271;51.114;13.780;2023-04-01T14:01:32;15.03;;;0.80;;
572;SDS011;271;51.114;13.780;2023-04-01T14:04:34;14.97;;;0.90;;
572;SDS011;271;51.114;13.780;2023-04-01T14:07:40;14.97;;;0.80;;
572;SDS011;271;51.114;13.780;2023-04-01T14:10:42;15.30;;;0.80;;
572;SDS011;271;51.114;13.780;2023-04-01T14:13:39;14.83;;;0.80;;
572;SDS011;271;51.114;13.780;2023-04-01T14:20:02;15.07;;;0.80;;
572;SDS011;271;51.114;13.780;2023-04-01T14:23:22;15.13;;;0.90;;
572;SDS011;271;51.114;13.780;2023-04-01T14:26:30;15.40;;;0.80;;
572;SDS011;271;51.114;13.780;2023-04-01T14:29:34;16.10;;;0.90;;
572;SDS011;271;51.114;13.780;2023-04-01T14:32:34;14.90;;;0.80;;
572;SDS011;271;51.114;13.780;2023-04-01T14:35:45;15.03;;;0.90;;
572;SDS011;271;51.114;13.780;2023-04-01T14:38:43;14.83;;;0.70;;
572;SDS011;271;51.114;13.780;2023-04-01T14:41:47;14.83;;;0.80;;
572;SDS011;271;51.114;13.780;2023-04-01T14:44:46;14.87;;;0.93;;
572;SDS011;271;51.114;13.780;2023-04-01T14:47:46;14.70;;;0.77;;
572;SDS011;271;51.114;13.780;2023-04-01T14:50:41;15.90;;;1.00;;
572;SDS011;271;51.114;13.780;2023-04-01T14:53:44;14.87;;;0.80;;
572;SDS011;271;51.114;13.780;2023-04-01T14:56:47;15.03;;;0.80;;
572;SDS011;271;51.114;13.780;2023-04-01T14:59:39;15.17;;;0.90;;
572;SDS011;271;51.114;13.780;2023-04-01T15:05:39;14.77;;;0.80;;
572;SDS011;271;51.114;13.780;2023-04-01T15:08:34;15.20;;;1.00;;
572;SDS011;271;51.114;13.780;2023-04-01T15:11:39;14.87;;;0.90;;
572;SDS011;271;51.114;13.780;2023-04-01T15:14:46;15.10;;;0.80;;
572;SDS011;271;51.114;13.780;2023-04-01T15:17:58;14.83;;;0.70;;
572;SDS011;271;51.114;13.780;2023-04-01T15:21:03;15.33;;;0.80;;
572;SDS011;271;51.114;13.780;2023-04-01T15:24:09;14.53;;;0.67;;
572;SDS011;271;51.114;13.780;2023-04-01T15:27:15;14.40;;;0.70;;
572;SDS011;271;51.114;13.780;2023-04-01T15:36:42;14.47;;;0.70;;
572;SDS011;271;51.114;13.780;2023-04-01T15:39:43;14.73;;;0.80;;
572;SDS011;271;51.114;13.780;2023-04-01T15:42:47;14.40;;;0.87;;
572;SDS011;271;51.114;13.780;2023-04-01T15:45:45;14.43;;;0.77;;
572;SDS011;271;51.114;13.780;2023-04-01T15:48:55;15.50;;;1.00;;
572;SDS011;271;51.114;13.780;2023-04-01T15:52:00;14.90;;;0.80;;
572;SDS011;271;51.114;13.780;2023-04-01T15:55:04;14.70;;;0.90;;
572;SDS011;271;51.114;13.780;2023-04-01T15:58:05;14.47;;;0.87;;
572;SDS011;271;51.114;13.780;2023-04-01T16:01:12;15.20;;;0.90;;
572;SDS011;271;51.114;13.780;2023-04-01T16:04:27;14.47;;;0.80;;
572;SDS011;271;51.114;13.780;2023-04-01T16:07:41;14.47;;;0.80;;
572;SDS011;271;51.114;13.780;2023-04-01T16:10:38;14.43;;;0.80;;
572;SDS011;271;51.114;13.780;2023-04-01T16:13:42;14.77;;;0.90;;
572;SDS011;271;51.114;13.780;2023-04-01T16:16:45;14.47;;;0.80;;
572;SDS011;271;51.114;13.780;2023-04-01T16:19:51;17.17;;;1.00;;
572;SDS011;271;51.114;13.780;2023-04-01T16:22:46;14.63;;;0.80;;
572;SDS011;271;51.114;13.780;2023-04-01T16:25:41;14.60;;;0.90;;
572;SDS011;271;51.114;13.780;2023-04-01T16:28:48;15.07;;;0.90;;
572;SDS011;271;51.114;13.780;2023-04-01T16:31:43;14.77;;;0.90;;
572;SDS011;271;51.114;13.780;2023-04-01T16:34:35;14.50;;;0.90;;
572;SDS011;271;51.114;13.780;2023-04-01T16:37:29;14.53;;;0.80;;
572;SDS011;271;51.114;13.780;2023-04-01T16:40:25;14.53;;;0.90;;
572;SDS011;271;51.114;13.780;2023-04-01T16:43:26;14.80;;;1.00;;
572;SDS011;271;51.114;13.780;2023-04-01T16:46:26;15.13;;;1.43;;
572;SDS011;271;51.114;13.780;2023-04-01T16:49:27;14.73;;;0.80;;
572;SDS011;271;51.114;13.780;2023-04-01T16:52:30;14.93;;;0.87;;
572;SDS011;271;51.114;13.780;2023-04-01T16:55:22;14.90;;;0.90;;
572;SDS011;271;51.114;13.780;2023-04-01T16:58:23;15.30;;;1.20;;
572;SDS011;271;51.114;13.780;2023-04-01T17:01:15;15.17;;;1.10;;
572;SDS011;271;51.114;13.780;2023-04-01T17:04:12;17.77;;;1.20;;
572;SDS011;271;51.114;13.780;2023-04-01T17:07:11;15.50;;;1.23;;
572;SDS011;271;51.114;13.780;2023-04-01T17:13:29;15.60;;;1.13;;
572;SDS011;271;51.114;13.780;2023-04-01T17:16:38;15.23;;;1.00;;
572;SDS011;271;51.114;13.780;2023-04-01T17:19:42;15.40;;;1.20;;
572;SDS011;271;51.114;13.780;2023-04-01T17:22:37;15.67;;;1.47;;
572;SDS011;271;51.114;13.780;2023-04-01T17:25:35;16.10;;;1.70;;
572;SDS011;271;51.114;13.780;2023-04-01T17:28:37;15.27;;;1.50;;
572;SDS011;271;51.114;13.780;2023-04-01T17:31:36;15.73;;;1.43;;
572;SDS011;271;51.114;13.780;2023-04-01T17:34:42;18.03;;;3.30;;
572;SDS011;271;51.114;13.780;2023-04-01T17:37:43;15.67;;;1.90;;
572;SDS011;271;51.114;13.780;2023-04-01T17:40:48;16.30;;;2.00;;
572;SDS011;271;51.114;13.780;2023-04-01T17:43:44;16.50;;;1.80;;
572;SDS011;271;51.114;13.780;2023-04-01T17:46:42;15.20;;;1.27;;
572;SDS011;271;51.114;13.780;2023-04-01T17:49:45;15.37;;;1.50;;
572;SDS011;271;51.114;13.780;2023-04-01T17:52:43;15.17;;;1.17;;
572;SDS011;271;51.114;13.780;2023-04-01T17:58:50;15.37;;;1.20;;
572;SDS011;271;51.114;13.780;2023-04-01T18:01:51;15.47;;;1.40;;
572;SDS011;271;51.114;13.780;2023-04-01T18:04:53;16.00;;;1.30;;
572;SDS011;271;51.114;13.780;2023-04-01T18:08:12;15.37;;;1.33;;
572;SDS011;271;51.114;13.780;2023-04-01T18:11:08;15.60;;;1.43;;
572;SDS011;271;51.114;13.780;2023-04-01T18:14:13;17.13;;;2.27;;
572;SDS011;271;51.114;13.780;2023-04-01T18:17:38;15.80;;;1.40;;
572;SDS011;271;51.114;13.780;2023-04-01T18:20:43;15.90;;;1.20;;
572;SDS011;271;51.114;13.780;2023-04-01T18:23:41;15.67;;;1.27;;
572;SDS011;271;51.114;13.780;2023-04-01T18:26:36;15.73;;;1.60;;
572;SDS011;271;51.114;13.780;2023-04-01T18:29:32;18.80;;;1.80;;
572;SDS011;271;51.114;13.780;2023-04-01T18:32:27;16.73;;;2.07;;
572;SDS011;271;51.114;13.780;2023-04-01T18:35:26;16.70;;;2.10;;
572;SDS011;271;51.114;13.780;2023-04-01T18:38:18;16.67;;;2.27;;
572;SDS011;271;51.114;13.780;2023-04-01T18:41:15;16.10;;;2.27;;
572;SDS011;271;51.114;13.780;2023-04-01T18:44:16;16.30;;;2.67;;
572;SDS011;271;51.114;13.780;2023-04-01T18:47:16;16.07;;;2.47;;
572;SDS011;271;51.114;13.780;2023-04-01T18:50:13;15.97;;;2.07;;
572;SDS011;271;51.114;13.780;2023-04-01T18:53:09;17.10;;;3.50;;
572;SDS011;271;51.114;13.780;2023-04-01T18:56:06;19.47;;;4.77;;
572;SDS011;271;51.114;13.780;2023-04-01T18:58:59;29.03;;;10.70;;
572;SDS011;271;51.114;13.780;2023-04-01T19:01:57;22.40;;;8.07;;
572;SDS011;271;51.114;13.780;2023-04-01T19:04:50;19.03;;;4.70;;
572;SDS011;271;51.114;13.780;2023-04-01T19:07:45;23.13;;;7.10;;
572;SDS011;271;51.114;13.780;2023-04-01T19:10:37;20.60;;;4.70;;
572;SDS011;271;51.114;13.780;2023-04-01T19:13:33;17.60;;;3.20;;
572;SDS011;271;51.114;13.780;2023-04-01T19:16:32;17.10;;;2.90;;
572;SDS011;271;51.114;13.780;2023-04-01T19:19:38;16.77;;;2.93;;
572;SDS011;271;51.114;13.780;2023-04-01T19:22:37;18.80;;;3.90;;
572;SDS011;271;51.114;13.780;2023-04-01T19:25:34;18.53;;;4.10;;
572;SDS011;271;51.114;13.780;2023-04-01T19:28:31;18.40;;;3.27;;
572;SDS011;271;51.114;13.780;2023-04-01T19:31:33;18.10;;;3.57;;
572;SDS011;271;51.114;13.780;2023-04-01T19:34:35;17.60;;;3.43;;
572;SDS011;271;51.114;13.780;2023-04-01T19:37:37;18.57;;;4.70;;
572;SDS011;271;51.114;13.780;2023-04-01T19:40:33;22.93;;;7.10;;
572;SDS011;271;51.114;13.780;2023-04-01T19:43:44;17.67;;;4.23;;
572;SDS011;271;51.114;13.780;2023-04-01T19:46:41;17.53;;;3.37;;
572;SDS011;271;51.114;13.780;2023-04-01T19:49:36;18.20;;;4.50;;
572;SDS011;271;51.114;13.780;2023-04-01T19:52:35;17.90;;;4.20;;
572;SDS011;271;51.114;13.780;2023-04-01T19:55:29;18.50;;;4.03;;
572;SDS011;271;51.114;13.780;2023-04-01T19:58:25;18.00;;;4.67;;
572;SDS011;271;51.114;13.780;2023-04-01T20:01:20;19.00;;;4.47;;
572;SDS011;271;51.114;13.780;2023-04-01T20:04:14;19.40;;;3.53;;
572;SDS011;271;51.114;13.780;2023-04-01T20:07:07;18.30;;;3.80;;
572;SDS011;271;51.114;13.780;2023-04-01T20:10:02;18.67;;;4.00;;
572;SDS011;271;51.114;13.780;2023-04-01T20:12:57;17.97;;;3.60;;
572;SDS011;271;51.114;13.780;2023-04-01T20:15:58;18.00;;;4.00;;
572;SDS011;271;51.114;13.780;2023-04-01T20:18:50;18.50;;;4.30;;
572;SDS011;271;51.114;13.780;2023-04-01T20:21:42;19.53;;;4.40;;